sensor_id;sensor_type;location;lat;lon;timestamp;P1;durP1;ratioP1;P2;durP2;ratioP2
52342;SDS011;38277;51.972;4.624;2022-08-01T00:08:05;7.5;;;4.2;;
52342;SDS011;38277;51.972;4.624;2022-08-01T00:12:29;7.1;;;4.3;;
52342;SDS011;38277;51.972;4.624;2022-08-01T00:30:54;7.0;;;4.3;;
52342;SDS011;38277;51.972;4.624;2022-08-01T00:39:52;7.2;;;4.5;;
52342;SDS011;38277;51.972;4.624;2022-08-01T00:44:09;8.6;;;4.8;;
52342;SDS011;38277;51.972;4.624;2022-08-01T00:48:29;7.8;;;4.5;;
52342;SDS011;38277;51.972;4.624;2022-08-01T00:53:07;7.8;;;3.8;;
52342;SDS011;38277;51.972;4.624;2022-08-01T01:11:13;7.2;;;4.0;;
52342;SDS011;38277;51.972;4.624;2022-08-01T01:15:30;8.6;;;4.7;;
52342;SDS011;38277;51.972;4.624;2022-08-01T01:33:27;7.3;;;3.7;;
52342;SDS011;38277;51.972;4.624;2022-08-01T01:38:39;7.2;;;3.4;;
52342;SDS011;38277;51.972;4.624;2022-08-01T01:42:46;5.6;;;2.7;;
52342;SDS011;38277;51.972;4.624;2022-08-01T01:47:33;3.7;;;2.1;;
52342;SDS011;38277;51.972;4.624;2022-08-01T01:51:43;2.1;;;1.7;;
52342;SDS011;38277;51.972;4.624;2022-08-01T01:56:14;2.3;;;1.6;;
52342;SDS011;38277;51.972;4.624;2022-08-01T02:00:53;3.0;;;1.6;;
52342;SDS011;38277;51.972;4.624;2022-08-01T02:05:10;3.6;;;2.0;;
52342;SDS011;38277;51.972;4.624;2022-08-01T02:09:51;3.5;;;2.3;;
52342;SDS011;38277;51.972;4.624;2022-08-01T02:23:25;4.0;;;2.3;;
52342;SDS011;38277;51.972;4.624;2022-08-01T02:28:03;2.8;;;2.0;;
52342;SDS011;38277;51.972;4.624;2022-08-01T02:32:34;1.9;;;1.6;;
52342;SDS011;38277;51.972;4.624;2022-08-01T02:45:45;3.3;;;1.8;;
52342;SDS011;38277;51.972;4.624;2022-08-01T02:50:20;2.3;;;1.8;;
52342;SDS011;38277;51.972;4.624;2022-08-01T02:54:35;3.3;;;2.0;;
52342;SDS011;38277;51.972;4.624;2022-08-01T02:59:04;4.4;;;2.6;;
52342;SDS011;38277;51.972;4.624;2022-08-01T03:03:45;4.6;;;2.4;;
52342;SDS011;38277;51.972;4.624;2022-08-01T03:08:15;3.3;;;2.2;;
52342;SDS011;38277;51.972;4.624;2022-08-01T03:12:44;3.3;;;2.2;;
52342;SDS011;38277;51.972;4.624;2022-08-01T03:17:14;3.9;;;2.6;;
52342;SDS011;38277;51.972;4.624;2022-08-01T03:21:43;6.6;;;2.5;;
52342;SDS011;38277;51.972;4.624;2022-08-01T03:35:15;2.7;;;2.0;;
52342;SDS011;38277;51.972;4.624;2022-08-01T03:39:31;4.2;;;2.2;;
52342;SDS011;38277;51.972;4.624;2022-08-01T03:44:32;2.7;;;2.2;;
52342;SDS011;38277;51.972;4.624;2022-08-01T03:48:50;5.4;;;2.5;;
52342;SDS011;38277;51.972;4.624;2022-08-01T03:53:01;4.3;;;2.6;;
52342;SDS011;38277;51.972;4.624;2022-08-01T03:57:40;4.7;;;2.2;;
52342;SDS011;38277;51.972;4.624;2022-08-01T04:02:14;3.7;;;2.3;;
52342;SDS011;38277;51.972;4.624;2022-08-01T04:06:56;4.3;;;2.2;;
52342;SDS011;38277;51.972;4.624;2022-08-01T04:11:09;3.1;;;2.0;;
52342;SDS011;38277;51.972;4.624;2022-08-01T04:15:52;2.1;;;1.6;;
52342;SDS011;38277;51.972;4.624;2022-08-01T04:20:21;2.2;;;1.9;;
52342;SDS011;38277;51.972;4.624;2022-08-01T04:24:27;2.2;;;1.8;;
52342;SDS011;38277;51.972;4.624;2022-08-01T04:29:25;2.4;;;1.4;;
52342;SDS011;38277;51.972;4.624;2022-08-01T04:47:06;2.6;;;1.6;;
52342;SDS011;38277;51.972;4.624;2022-08-01T04:51:52;1.5;;;1.3;;
52342;SDS011;38277;51.972;4.624;2022-08-01T05:05:24;1.9;;;1.5;;
52342;SDS011;38277;51.972;4.624;2022-08-01T05:09:49;2.0;;;1.4;;
52342;SDS011;38277;51.972;4.624;2022-08-01T05:23:22;2.6;;;1.3;;
52342;SDS011;38277;51.972;4.624;2022-08-01T05:27:51;1.5;;;1.3;;
52342;SDS011;38277;51.972;4.624;2022-08-01T05:32:06;2.6;;;1.4;;
52342;SDS011;38277;51.972;4.624;2022-08-01T05:50:35;2.5;;;1.3;;
52342;SDS011;38277;51.972;4.624;2022-08-01T05:54:26;2.2;;;1.4;;
52342;SDS011;38277;51.972;4.624;2022-08-01T06:08:32;3.2;;;1.8;;
52342;SDS011;38277;51.972;4.624;2022-08-01T06:17:11;2.0;;;1.3;;
52342;SDS011;38277;51.972;4.624;2022-08-01T06:21:35;1.7;;;1.2;;
52342;SDS011;38277;51.972;4.624;2022-08-01T06:25:54;2.5;;;1.8;;
52342;SDS011;38277;51.972;4.624;2022-08-01T06:35:28;2.2;;;1.5;;
52342;SDS011;38277;51.972;4.624;2022-08-01T06:39:23;3.8;;;2.0;;
52342;SDS011;38277;51.972;4.624;2022-08-01T06:44:15;4.5;;;2.1;;
52342;SDS011;38277;51.972;4.624;2022-08-01T06:48:47;3.8;;;2.5;;
52342;SDS011;38277;51.972;4.624;2022-08-01T06:53:09;4.6;;;2.9;;
52342;SDS011;38277;51.972;4.624;2022-08-01T06:57:47;5.7;;;3.4;;
52342;SDS011;38277;51.972;4.624;2022-08-01T07:02:19;6.1;;;3.6;;
52342;SDS011;38277;51.972;4.624;2022-08-01T07:06:38;5.5;;;3.7;;
52342;SDS011;38277;51.972;4.624;2022-08-01T07:11:02;9.5;;;3.9;;
52342;SDS011;38277;51.972;4.624;2022-08-01T07:15:25;11.7;;;4.7;;
52342;SDS011;38277;51.972;4.624;2022-08-01T07:20:03;7.8;;;4.1;;
52342;SDS011;38277;51.972;4.624;2022-08-01T07:29:10;9.8;;;4.7;;
52342;SDS011;38277;51.972;4.624;2022-08-01T07:33:25;10.9;;;4.3;;
52342;SDS011;38277;51.972;4.624;2022-08-01T07:47:34;14.2;;;5.4;;
52342;SDS011;38277;51.972;4.624;2022-08-01T07:51:32;10.0;;;4.7;;
52342;SDS011;38277;51.972;4.624;2022-08-01T07:56:07;15.8;;;5.7;;
52342;SDS011;38277;51.972;4.624;2022-08-01T08:00:33;8.5;;;3.1;;
52342;SDS011;38277;51.972;4.624;2022-08-01T08:05:14;8.3;;;3.1;;
52342;SDS011;38277;51.972;4.624;2022-08-01T08:09:42;9.1;;;3.1;;
52342;SDS011;38277;51.972;4.624;2022-08-01T08:14:13;11.5;;;3.0;;
52342;SDS011;38277;51.972;4.624;2022-08-01T08:23:02;14.4;;;4.5;;
52342;SDS011;38277;51.972;4.624;2022-08-01T08:27:36;9.2;;;2.5;;
52342;SDS011;38277;51.972;4.624;2022-08-01T08:32:11;8.6;;;2.5;;
52342;SDS011;38277;51.972;4.624;2022-08-01T08:36:49;8.5;;;2.7;;
52342;SDS011;38277;51.972;4.624;2022-08-01T08:41:08;8.7;;;2.6;;
52342;SDS011;38277;51.972;4.624;2022-08-01T08:45:25;8.0;;;2.1;;
52342;SDS011;38277;51.972;4.624;2022-08-01T08:49:55;8.2;;;2.5;;
52342;SDS011;38277;51.972;4.624;2022-08-01T08:54:25;9.9;;;2.5;;
52342;SDS011;38277;51.972;4.624;2022-08-01T09:08:06;9.4;;;2.1;;
52342;SDS011;38277;51.972;4.624;2022-08-01T09:17:12;7.7;;;2.2;;
52342;SDS011;38277;51.972;4.624;2022-08-01T09:22:01;8.2;;;2.2;;
52342;SDS011;38277;51.972;4.624;2022-08-01T09:26:17;5.0;;;1.7;;
52342;SDS011;38277;51.972;4.624;2022-08-01T09:35:24;8.6;;;2.0;;
52342;SDS011;38277;51.972;4.624;2022-08-01T09:39:26;4.4;;;1.7;;
52342;SDS011;38277;51.972;4.624;2022-08-01T09:44:03;8.3;;;1.8;;
52342;SDS011;38277;51.972;4.624;2022-08-01T09:57:54;4.4;;;1.6;;
52342;SDS011;38277;51.972;4.624;2022-08-01T10:02:29;4.1;;;1.7;;
52342;SDS011;38277;51.972;4.624;2022-08-01T10:11:11;5.6;;;1.6;;
52342;SDS011;38277;51.972;4.624;2022-08-01T10:15:31;7.7;;;1.9;;
52342;SDS011;38277;51.972;4.624;2022-08-01T10:20:07;5.6;;;1.6;;
52342;SDS011;38277;51.972;4.624;2022-08-01T10:38:13;5.7;;;1.8;;
52342;SDS011;38277;51.972;4.624;2022-08-01T10:42:24;5.4;;;2.0;;
52342;SDS011;38277;51.972;4.624;2022-08-01T10:56:20;6.5;;;1.4;;
52342;SDS011;38277;51.972;4.624;2022-08-01T11:00:34;4.0;;;1.6;;
52342;SDS011;38277;51.972;4.624;2022-08-01T11:05:22;8.3;;;2.0;;
52342;SDS011;38277;51.972;4.624;2022-08-01T11:09:42;7.1;;;2.1;;
52342;SDS011;38277;51.972;4.624;2022-08-01T11:14:06;7.5;;;1.5;;
52342;SDS011;38277;51.972;4.624;2022-08-01T11:18:50;5.0;;;1.8;;
52342;SDS011;38277;51.972;4.624;2022-08-01T11:23:19;5.8;;;1.9;;
52342;SDS011;38277;51.972;4.624;2022-08-01T11:27:36;5.9;;;1.7;;
52342;SDS011;38277;51.972;4.624;2022-08-01T11:32:27;5.8;;;1.6;;
52342;SDS011;38277;51.972;4.624;2022-08-01T11:36:23;6.8;;;2.2;;
52342;SDS011;38277;51.972;4.624;2022-08-01T11:41:25;7.7;;;1.7;;
52342;SDS011;38277;51.972;4.624;2022-08-01T11:45:24;13.0;;;2.4;;
52342;SDS011;38277;51.972;4.624;2022-08-01T11:50:30;8.7;;;1.7;;
52342;SDS011;38277;51.972;4.624;2022-08-01T11:54:27;7.0;;;2.1;;
52342;SDS011;38277;51.972;4.624;2022-08-01T11:58:58;6.3;;;2.0;;
52342;SDS011;38277;51.972;4.624;2022-08-01T12:08:08;6.2;;;1.8;;
52342;SDS011;38277;51.972;4.624;2022-08-01T12:12:41;6.5;;;1.7;;
52342;SDS011;38277;51.972;4.624;2022-08-01T12:17:04;7.1;;;1.6;;
52342;SDS011;38277;51.972;4.624;2022-08-01T12:21:30;5.3;;;1.7;;
52342;SDS011;38277;51.972;4.624;2022-08-01T12:26:03;7.9;;;1.8;;
52342;SDS011;38277;51.972;4.624;2022-08-01T12:30:27;6.4;;;1.8;;
52342;SDS011;38277;51.972;4.624;2022-08-01T12:35:00;8.7;;;1.9;;
52342;SDS011;38277;51.972;4.624;2022-08-01T12:39:30;4.1;;;1.7;;
52342;SDS011;38277;51.972;4.624;2022-08-01T12:44:13;7.1;;;1.6;;
52342;SDS011;38277;51.972;4.624;2022-08-01T12:57:44;7.5;;;1.7;;
52342;SDS011;38277;51.972;4.624;2022-08-01T13:02:15;5.8;;;1.6;;
52342;SDS011;38277;51.972;4.624;2022-08-01T13:06:52;9.3;;;2.0;;
52342;SDS011;38277;51.972;4.624;2022-08-01T13:11:18;4.9;;;1.7;;
52342;SDS011;38277;51.972;4.624;2022-08-01T13:15:46;6.2;;;1.8;;
52342;SDS011;38277;51.972;4.624;2022-08-01T13:20:08;6.1;;;1.7;;
52342;SDS011;38277;51.972;4.624;2022-08-01T13:29:05;4.7;;;1.4;;
52342;SDS011;38277;51.972;4.624;2022-08-01T13:33:39;4.8;;;1.5;;
52342;SDS011;38277;51.972;4.624;2022-08-01T13:38:22;5.7;;;1.8;;
52342;SDS011;38277;51.972;4.624;2022-08-01T13:42:43;5.1;;;1.7;;
52342;SDS011;38277;51.972;4.624;2022-08-01T13:47:05;7.0;;;1.5;;
52342;SDS011;38277;51.972;4.624;2022-08-01T13:51:38;4.2;;;1.3;;
52342;SDS011;38277;51.972;4.624;2022-08-01T13:56:19;5.3;;;1.6;;
52342;SDS011;38277;51.972;4.624;2022-08-01T14:00:24;4.4;;;1.3;;
52342;SDS011;38277;51.972;4.624;2022-08-01T14:05:12;5.2;;;1.5;;
52342;SDS011;38277;51.972;4.624;2022-08-01T14:09:50;4.2;;;1.5;;
52342;SDS011;38277;51.972;4.624;2022-08-01T14:13:54;4.7;;;1.5;;
52342;SDS011;38277;51.972;4.624;2022-08-01T14:22:53;5.3;;;1.3;;
52342;SDS011;38277;51.972;4.624;2022-08-01T14:27:35;6.4;;;1.8;;
52342;SDS011;38277;51.972;4.624;2022-08-01T14:32:04;2.7;;;1.1;;
52342;SDS011;38277;51.972;4.624;2022-08-01T14:41:33;3.4;;;1.3;;
52342;SDS011;38277;51.972;4.624;2022-08-01T14:50:20;2.8;;;1.1;;
52342;SDS011;38277;51.972;4.624;2022-08-01T14:54:26;3.5;;;1.1;;
52342;SDS011;38277;51.972;4.624;2022-08-01T14:59:14;4.6;;;0.9;;
52342;SDS011;38277;51.972;4.624;2022-08-01T15:03:36;3.0;;;1.1;;
52342;SDS011;38277;51.972;4.624;2022-08-01T15:08:15;4.0;;;1.4;;
52342;SDS011;38277;51.972;4.624;2022-08-01T15:12:42;4.8;;;1.3;;
52342;SDS011;38277;51.972;4.624;2022-08-01T15:17:09;4.1;;;1.2;;
52342;SDS011;38277;51.972;4.624;2022-08-01T15:21:49;3.5;;;1.6;;
52342;SDS011;38277;51.972;4.624;2022-08-01T15:26:16;4.0;;;1.4;;
52342;SDS011;38277;51.972;4.624;2022-08-01T15:30:31;3.4;;;1.2;;
52342;SDS011;38277;51.972;4.624;2022-08-01T15:34:53;4.2;;;1.4;;
52342;SDS011;38277;51.972;4.624;2022-08-01T15:39:39;5.3;;;1.6;;
52342;SDS011;38277;51.972;4.624;2022-08-01T15:43:58;4.4;;;1.7;;
52342;SDS011;38277;51.972;4.624;2022-08-01T15:48:45;4.7;;;1.2;;
52342;SDS011;38277;51.972;4.624;2022-08-01T15:53:06;5.4;;;1.7;;
52342;SDS011;38277;51.972;4.624;2022-08-01T15:57:31;3.7;;;1.4;;
52342;SDS011;38277;51.972;4.624;2022-08-01T16:01:54;4.5;;;1.6;;
52342;SDS011;38277;51.972;4.624;2022-08-01T16:06:25;5.3;;;1.4;;
52342;SDS011;38277;51.972;4.624;2022-08-01T16:11:21;3.2;;;1.2;;
52342;SDS011;38277;51.972;4.624;2022-08-01T16:15:51;4.8;;;1.6;;
52342;SDS011;38277;51.972;4.624;2022-08-01T16:20:08;4.0;;;1.3;;
52342;SDS011;38277;51.972;4.624;2022-08-01T16:24:50;5.7;;;1.5;;
52342;SDS011;38277;51.972;4.624;2022-08-01T16:29:01;4.5;;;1.7;;
52342;SDS011;38277;51.972;4.624;2022-08-01T16:33:30;4.0;;;1.3;;
52342;SDS011;38277;51.972;4.624;2022-08-01T16:38:21;3.6;;;1.4;;
52342;SDS011;38277;51.972;4.624;2022-08-01T16:47:17;3.2;;;1.2;;
52342;SDS011;38277;51.972;4.624;2022-08-01T16:51:23;4.4;;;1.5;;
52342;SDS011;38277;51.972;4.624;2022-08-01T16:56:05;3.8;;;1.2;;
52342;SDS011;38277;51.972;4.624;2022-08-01T17:05:22;2.9;;;1.1;;
52342;SDS011;38277;51.972;4.624;2022-08-01T17:09:30;2.4;;;1.2;;
52342;SDS011;38277;51.972;4.624;2022-08-01T17:14:10;2.2;;;1.1;;
52342;SDS011;38277;51.972;4.624;2022-08-01T17:18:30;1.5;;;0.9;;
52342;SDS011;38277;51.972;4.624;2022-08-01T17:23:16;2.6;;;1.2;;
52342;SDS011;38277;51.972;4.624;2022-08-01T17:27:28;3.4;;;1.0;;
52342;SDS011;38277;51.972;4.624;2022-08-01T17:32:13;3.8;;;1.4;;
52342;SDS011;38277;51.972;4.624;2022-08-01T17:41:09;3.4;;;1.3;;
52342;SDS011;38277;51.972;4.624;2022-08-01T17:45:48;3.9;;;1.4;;
52342;SDS011;38277;51.972;4.624;2022-08-01T17:50:05;1.9;;;1.1;;
52342;SDS011;38277;51.972;4.624;2022-08-01T17:58:55;3.0;;;1.3;;
52342;SDS011;38277;51.972;4.624;2022-08-01T18:03:51;4.2;;;1.4;;
52342;SDS011;38277;51.972;4.624;2022-08-01T18:08:21;3.8;;;1.8;;
52342;SDS011;38277;51.972;4.624;2022-08-01T18:17:00;3.3;;;1.1;;
52342;SDS011;38277;51.972;4.624;2022-08-01T18:21:40;2.9;;;1.3;;
52342;SDS011;38277;51.972;4.624;2022-08-01T18:26:19;2.2;;;1.0;;
52342;SDS011;38277;51.972;4.624;2022-08-01T18:30:33;2.9;;;1.7;;
52342;SDS011;38277;51.972;4.624;2022-08-01T18:35:24;3.0;;;1.0;;
52342;SDS011;38277;51.972;4.624;2022-08-01T18:39:48;2.3;;;1.2;;
52342;SDS011;38277;51.972;4.624;2022-08-01T18:44:13;1.8;;;1.0;;
52342;SDS011;38277;51.972;4.624;2022-08-01T18:48:29;2.8;;;1.1;;
52342;SDS011;38277;51.972;4.624;2022-08-01T18:53:09;3.3;;;1.3;;
52342;SDS011;38277;51.972;4.624;2022-08-01T18:57:35;3.9;;;1.4;;
52342;SDS011;38277;51.972;4.624;2022-08-01T19:02:22;2.5;;;0.9;;
52342;SDS011;38277;51.972;4.624;2022-08-01T19:11:29;2.4;;;1.1;;
52342;SDS011;38277;51.972;4.624;2022-08-01T19:15:35;1.4;;;1.1;;
52342;SDS011;38277;51.972;4.624;2022-08-01T19:19:59;2.4;;;1.1;;
52342;SDS011;38277;51.972;4.624;2022-08-01T19:24:50;2.3;;;1.4;;
52342;SDS011;38277;51.972;4.624;2022-08-01T19:29:08;2.1;;;1.0;;
52342;SDS011;38277;51.972;4.624;2022-08-01T19:33:34;2.3;;;0.9;;
52342;SDS011;38277;51.972;4.624;2022-08-01T19:38:20;3.9;;;1.7;;
52342;SDS011;38277;51.972;4.624;2022-08-01T19:46:57;2.1;;;1.1;;
52342;SDS011;38277;51.972;4.624;2022-08-01T19:51:49;2.3;;;1.3;;
52342;SDS011;38277;51.972;4.624;2022-08-01T19:56:10;2.0;;;1.0;;
52342;SDS011;38277;51.972;4.624;2022-08-01T20:00:37;2.4;;;1.2;;
52342;SDS011;38277;51.972;4.624;2022-08-01T20:04:53;1.4;;;1.0;;
52342;SDS011;38277;51.972;4.624;2022-08-01T20:13:53;1.5;;;0.9;;
52342;SDS011;38277;51.972;4.624;2022-08-01T20:23:21;1.8;;;1.0;;
52342;SDS011;38277;51.972;4.624;2022-08-01T20:27:40;2.8;;;1.2;;
52342;SDS011;38277;51.972;4.624;2022-08-01T20:32:08;2.6;;;1.2;;
52342;SDS011;38277;51.972;4.624;2022-08-01T20:36:25;1.4;;;0.9;;
52342;SDS011;38277;51.972;4.624;2022-08-01T20:41:07;2.7;;;1.0;;
52342;SDS011;38277;51.972;4.624;2022-08-01T20:45:46;3.1;;;1.3;;
52342;SDS011;38277;51.972;4.624;2022-08-01T20:50:11;2.4;;;1.2;;
52342;SDS011;38277;51.972;4.624;2022-08-01T20:59:16;2.7;;;1.3;;
52342;SDS011;38277;51.972;4.624;2022-08-01T21:03:48;2.3;;;1.1;;
52342;SDS011;38277;51.972;4.624;2022-08-01T21:07:56;2.4;;;1.3;;
52342;SDS011;38277;51.972;4.624;2022-08-01T21:12:45;1.2;;;1.1;;
52342;SDS011;38277;51.972;4.624;2022-08-01T21:16:58;3.9;;;1.7;;
52342;SDS011;38277;51.972;4.624;2022-08-01T21:21:41;3.0;;;1.3;;
52342;SDS011;38277;51.972;4.624;2022-08-01T21:26:02;2.7;;;1.2;;
52342;SDS011;38277;51.972;4.624;2022-08-01T21:35:17;3.7;;;1.6;;
52342;SDS011;38277;51.972;4.624;2022-08-01T21:39:40;4.0;;;1.6;;
52342;SDS011;38277;51.972;4.624;2022-08-01T21:43:58;3.3;;;1.4;;
52342;SDS011;38277;51.972;4.624;2022-08-01T21:48:48;1.7;;;1.3;;
52342;SDS011;38277;51.972;4.624;2022-08-01T21:53:42;4.0;;;1.2;;
52342;SDS011;38277;51.972;4.624;2022-08-01T21:58:32;2.1;;;1.3;;
52342;SDS011;38277;51.972;4.624;2022-08-01T22:02:06;3.7;;;1.4;;
52342;SDS011;38277;51.972;4.624;2022-08-01T22:11:03;3.0;;;1.4;;
52342;SDS011;38277;51.972;4.624;2022-08-01T22:15:51;3.4;;;1.2;;
52342;SDS011;38277;51.972;4.624;2022-08-01T22:20:14;2.7;;;1.2;;
52342;SDS011;38277;51.972;4.624;2022-08-01T22:29:04;2.6;;;1.7;;
52342;SDS011;38277;51.972;4.624;2022-08-01T22:33:54;3.1;;;1.3;;
52342;SDS011;38277;51.972;4.624;2022-08-01T22:37:55;2.9;;;1.4;;
52342;SDS011;38277;51.972;4.624;2022-08-01T22:42:52;4.3;;;1.5;;
52342;SDS011;38277;51.972;4.624;2022-08-01T22:47:56;3.1;;;1.9;;
52342;SDS011;38277;51.972;4.624;2022-08-01T22:51:44;4.7;;;1.8;;
52342;SDS011;38277;51.972;4.624;2022-08-01T23:00:39;2.5;;;1.2;;
52342;SDS011;38277;51.972;4.624;2022-08-01T23:05:02;3.2;;;1.5;;
52342;SDS011;38277;51.972;4.624;2022-08-01T23:09:37;4.7;;;1.8;;
52342;SDS011;38277;51.972;4.624;2022-08-01T23:13:54;3.6;;;1.5;;
52342;SDS011;38277;51.972;4.624;2022-08-01T23:23:22;4.3;;;1.9;;
52342;SDS011;38277;51.972;4.624;2022-08-01T23:27:45;5.5;;;2.0;;
52342;SDS011;38277;51.972;4.624;2022-08-01T23:31:56;5.9;;;2.0;;
52342;SDS011;38277;51.972;4.624;2022-08-01T23:36:30;3.6;;;1.9;;
52342;SDS011;38277;51.972;4.624;2022-08-01T23:41:03;3.5;;;1.5;;
52342;SDS011;38277;51.972;4.624;2022-08-01T23:45:53;6.6;;;1.8;;
52342;SDS011;38277;51.972;4.624;2022-08-01T23:50:10;4.7;;;1.4;;
52342;SDS011;38277;51.972;4.624;2022-08-01T23:55:05;8.7;;;2.2;;
52342;SDS011;38277;51.972;4.624;2022-08-01T23:59:08;4.2;;;1.6;;
